sensor_id;sensor_type;location;lat;lon;timestamp;temperature;humidity
81902;DHT22;71369;50.796;3.290;2023-07-24T00:00:14;18.00;92.40
81902;DHT22;71369;50.796;3.290;2023-07-24T00:02:40;18.00;92.40
81902;DHT22;71369;50.796;3.290;2023-07-24T00:05:06;17.90;92.60
81902;DHT22;71369;50.796;3.290;2023-07-24T00:07:32;17.80;92.70
81902;DHT22;71369;50.796;3.290;2023-07-24T00:09:57;17.80;92.80
81902;DHT22;71369;50.796;3.290;2023-07-24T00:12:25;17.90;92.50
81902;DHT22;71369;50.796;3.290;2023-07-24T00:14:52;17.90;92.50
81902;DHT22;71369;50.796;3.290;2023-07-24T00:17:18;17.90;92.50
81902;DHT22;71369;50.796;3.290;2023-07-24T00:19:44;18.00;92.30
81902;DHT22;71369;50.796;3.290;2023-07-24T00:22:09;18.00;92.20
81902;DHT22;71369;50.796;3.290;2023-07-24T00:24:35;18.00;92.30
81902;DHT22;71369;50.796;3.290;2023-07-24T00:27:00;17.90;92.30
81902;DHT22;71369;50.796;3.290;2023-07-24T00:29:27;18.00;92.10
81902;DHT22;71369;50.796;3.290;2023-07-24T00:31:52;17.90;92.20
81902;DHT22;71369;50.796;3.290;2023-07-24T00:34:18;17.80;92.40
81902;DHT22;71369;50.796;3.290;2023-07-24T00:36:43;17.90;92.50
81902;DHT22;71369;50.796;3.290;2023-07-24T00:39:09;17.90;92.40
81902;DHT22;71369;50.796;3.290;2023-07-24T00:41:35;17.90;92.20
81902;DHT22;71369;50.796;3.290;2023-07-24T00:44:00;17.80;92.10
81902;DHT22;71369;50.796;3.290;2023-07-24T00:46:26;17.90;91.80
81902;DHT22;71369;50.796;3.290;2023-07-24T00:48:53;17.80;91.90
81902;DHT22;71369;50.796;3.290;2023-07-24T00:51:19;17.80;92.00
81902;DHT22;71369;50.796;3.290;2023-07-24T00:53:47;17.80;92.00
81902;DHT22;71369;50.796;3.290;2023-07-24T00:56:13;17.70;92.10
81902;DHT22;71369;50.796;3.290;2023-07-24T00:58:39;17.70;92.30
81902;DHT22;71369;50.796;3.290;2023-07-24T01:01:05;17.60;92.30
81902;DHT22;71369;50.796;3.290;2023-07-24T01:03:33;17.60;92.20
81902;DHT22;71369;50.796;3.290;2023-07-24T01:06:01;17.60;92.30
81902;DHT22;71369;50.796;3.290;2023-07-24T01:08:27;17.70;92.20
81902;DHT22;71369;50.796;3.290;2023-07-24T01:10:53;17.70;92.10
81902;DHT22;71369;50.796;3.290;2023-07-24T01:13:22;17.70;92.20
81902;DHT22;71369;50.796;3.290;2023-07-24T01:15:55;17.70;92.10
81902;DHT22;71369;50.796;3.290;2023-07-24T01:18:23;17.60;92.30
81902;DHT22;71369;50.796;3.290;2023-07-24T01:20:51;17.50;92.40
81902;DHT22;71369;50.796;3.290;2023-07-24T01:23:55;17.60;92.50
81902;DHT22;71369;50.796;3.290;2023-07-24T01:26:25;17.60;92.60
81902;DHT22;71369;50.796;3.290;2023-07-24T01:28:51;17.60;92.40
81902;DHT22;71369;50.796;3.290;2023-07-24T01:31:17;17.70;92.40
81902;DHT22;71369;50.796;3.290;2023-07-24T01:33:48;17.70;92.40
81902;DHT22;71369;50.796;3.290;2023-07-24T01:36:14;17.70;92.10
81902;DHT22;71369;50.796;3.290;2023-07-24T01:38:40;17.70;92.00
81902;DHT22;71369;50.796;3.290;2023-07-24T01:41:07;17.70;92.10
81902;DHT22;71369;50.796;3.290;2023-07-24T01:43:33;17.80;91.90
81902;DHT22;71369;50.796;3.290;2023-07-24T01:45:59;17.80;91.80
81902;DHT22;71369;50.796;3.290;2023-07-24T01:48:25;17.70;91.80
81902;DHT22;71369;50.796;3.290;2023-07-24T01:50:50;17.70;91.80
81902;DHT22;71369;50.796;3.290;2023-07-24T01:53:16;17.70;91.90
81902;DHT22;71369;50.796;3.290;2023-07-24T01:55:42;17.50;92.20
81902;DHT22;71369;50.796;3.290;2023-07-24T01:58:07;17.40;92.40
81902;DHT22;71369;50.796;3.290;2023-07-24T02:00:35;17.30;92.70
81902;DHT22;71369;50.796;3.290;2023-07-24T02:03:02;17.30;92.70
81902;DHT22;71369;50.796;3.290;2023-07-24T02:05:27;17.20;92.90
81902;DHT22;71369;50.796;3.290;2023-07-24T02:07:53;17.20;93.10
81902;DHT22;71369;50.796;3.290;2023-07-24T02:10:19;17.30;92.30
81902;DHT22;71369;50.796;3.290;2023-07-24T02:12:44;17.30;92.00
81902;DHT22;71369;50.796;3.290;2023-07-24T02:15:10;17.20;92.10
81902;DHT22;71369;50.796;3.290;2023-07-24T02:17:35;17.10;92.40
81902;DHT22;71369;50.796;3.290;2023-07-24T02:20:01;17.20;92.40
81902;DHT22;71369;50.796;3.290;2023-07-24T02:22:27;17.20;92.30
81902;DHT22;71369;50.796;3.290;2023-07-24T02:24:53;17.20;92.30
81902;DHT22;71369;50.796;3.290;2023-07-24T02:27:26;17.20;91.80
81902;DHT22;71369;50.796;3.290;2023-07-24T02:29:53;17.20;91.50
81902;DHT22;71369;50.796;3.290;2023-07-24T02:32:22;17.20;91.50
81902;DHT22;71369;50.796;3.290;2023-07-24T02:34:51;17.00;91.60
81902;DHT22;71369;50.796;3.290;2023-07-24T02:37:17;16.90;92.00
81902;DHT22;71369;50.796;3.290;2023-07-24T02:39:42;16.80;92.10
81902;DHT22;71369;50.796;3.290;2023-07-24T02:42:08;16.80;92.30
81902;DHT22;71369;50.796;3.290;2023-07-24T02:44:34;16.80;92.30
81902;DHT22;71369;50.796;3.290;2023-07-24T02:47:03;16.90;92.20
81902;DHT22;71369;50.796;3.290;2023-07-24T02:49:29;16.90;92.10
81902;DHT22;71369;50.796;3.290;2023-07-24T02:51:54;16.90;92.00
81902;DHT22;71369;50.796;3.290;2023-07-24T02:54:20;16.90;92.00
81902;DHT22;71369;50.796;3.290;2023-07-24T02:56:46;16.80;91.90
81902;DHT22;71369;50.796;3.290;2023-07-24T02:59:11;16.90;92.00
81902;DHT22;71369;50.796;3.290;2023-07-24T03:01:37;16.90;91.80
81902;DHT22;71369;50.796;3.290;2023-07-24T03:04:03;16.90;91.90
81902;DHT22;71369;50.796;3.290;2023-07-24T03:06:30;16.90;92.00
81902;DHT22;71369;50.796;3.290;2023-07-24T03:08:56;16.90;91.80
81902;DHT22;71369;50.796;3.290;2023-07-24T03:11:24;16.80;91.90
81902;DHT22;71369;50.796;3.290;2023-07-24T03:13:49;16.80;92.00
81902;DHT22;71369;50.796;3.290;2023-07-24T03:16:15;16.80;92.10
81902;DHT22;71369;50.796;3.290;2023-07-24T03:18:42;16.80;92.20
81902;DHT22;71369;50.796;3.290;2023-07-24T03:21:08;16.80;92.20
81902;DHT22;71369;50.796;3.290;2023-07-24T03:23:34;16.80;92.20
81902;DHT22;71369;50.796;3.290;2023-07-24T03:26:00;16.80;92.20
81902;DHT22;71369;50.796;3.290;2023-07-24T03:28:25;16.80;92.20
81902;DHT22;71369;50.796;3.290;2023-07-24T03:30:52;16.80;92.20
81902;DHT22;71369;50.796;3.290;2023-07-24T03:33:20;16.80;92.10
81902;DHT22;71369;50.796;3.290;2023-07-24T03:35:47;16.80;92.20
81902;DHT22;71369;50.796;3.290;2023-07-24T03:38:12;16.80;92.40
81902;DHT22;71369;50.796;3.290;2023-07-24T03:40:38;16.80;92.40
81902;DHT22;71369;50.796;3.290;2023-07-24T03:43:04;16.80;92.40
81902;DHT22;71369;50.796;3.290;2023-07-24T03:45:30;16.80;92.40
81902;DHT22;71369;50.796;3.290;2023-07-24T03:47:56;16.90;92.30
81902;DHT22;71369;50.796;3.290;2023-07-24T03:50:21;16.90;92.20
81902;DHT22;71369;50.796;3.290;2023-07-24T03:52:47;16.90;92.30
81902;DHT22;71369;50.796;3.290;2023-07-24T03:55:12;16.90;92.10
81902;DHT22;71369;50.796;3.290;2023-07-24T03:57:41;16.90;92.00
81902;DHT22;71369;50.796;3.290;2023-07-24T04:00:07;17.10;92.00
81902;DHT22;71369;50.796;3.290;2023-07-24T04:02:32;17.00;92.10
81902;DHT22;71369;50.796;3.290;2023-07-24T04:04:58;17.00;92.20
81902;DHT22;71369;50.796;3.290;2023-07-24T04:07:24;17.00;92.10
81902;DHT22;71369;50.796;3.290;2023-07-24T04:09:49;17.10;92.10
81902;DHT22;71369;50.796;3.290;2023-07-24T04:12:15;16.90;92.20
81902;DHT22;71369;50.796;3.290;2023-07-24T04:14:40;16.90;92.60
81902;DHT22;71369;50.796;3.290;2023-07-24T04:17:06;16.90;92.60
81902;DHT22;71369;50.796;3.290;2023-07-24T04:19:32;17.00;92.60
81902;DHT22;71369;50.796;3.290;2023-07-24T04:21:57;17.00;92.60
81902;DHT22;71369;50.796;3.290;2023-07-24T04:24:23;17.00;92.40
81902;DHT22;71369;50.796;3.290;2023-07-24T04:26:48;17.00;92.60
81902;DHT22;71369;50.796;3.290;2023-07-24T04:29:14;17.00;92.40
81902;DHT22;71369;50.796;3.290;2023-07-24T04:31:39;17.10;92.40
81902;DHT22;71369;50.796;3.290;2023-07-24T04:34:05;17.20;92.20
81902;DHT22;71369;50.796;3.290;2023-07-24T04:36:31;17.10;92.30
81902;DHT22;71369;50.796;3.290;2023-07-24T04:38:56;17.10;92.40
81902;DHT22;71369;50.796;3.290;2023-07-24T04:41:22;17.20;92.40
81902;DHT22;71369;50.796;3.290;2023-07-24T04:43:47;17.20;92.30
81902;DHT22;71369;50.796;3.290;2023-07-24T04:46:13;17.20;92.40
81902;DHT22;71369;50.796;3.290;2023-07-24T04:48:39;17.20;92.30
81902;DHT22;71369;50.796;3.290;2023-07-24T04:51:04;17.10;92.30
81902;DHT22;71369;50.796;3.290;2023-07-24T04:53:30;17.20;92.40
81902;DHT22;71369;50.796;3.290;2023-07-24T04:55:55;17.20;92.40
81902;DHT22;71369;50.796;3.290;2023-07-24T04:58:21;17.20;92.40
81902;DHT22;71369;50.796;3.290;2023-07-24T05:00:47;17.20;92.30
81902;DHT22;71369;50.796;3.290;2023-07-24T05:03:14;17.30;92.20
81902;DHT22;71369;50.796;3.290;2023-07-24T05:05:42;17.40;92.20
81902;DHT22;71369;50.796;3.290;2023-07-24T05:08:08;17.40;92.00
81902;DHT22;71369;50.796;3.290;2023-07-24T05:10:36;17.50;91.90
81902;DHT22;71369;50.796;3.290;2023-07-24T05:13:02;17.60;91.80
81902;DHT22;71369;50.796;3.290;2023-07-24T05:15:27;17.60;91.50
81902;DHT22;71369;50.796;3.290;2023-07-24T05:17:53;17.70;91.50
81902;DHT22;71369;50.796;3.290;2023-07-24T05:20:20;17.60;91.30
81902;DHT22;71369;50.796;3.290;2023-07-24T05:22:45;17.60;91.50
81902;DHT22;71369;50.796;3.290;2023-07-24T05:25:11;17.60;91.80
81902;DHT22;71369;50.796;3.290;2023-07-24T05:27:36;17.60;91.90
81902;DHT22;71369;50.796;3.290;2023-07-24T05:30:03;17.70;92.00
81902;DHT22;71369;50.796;3.290;2023-07-24T05:32:29;17.70;91.70
81902;DHT22;71369;50.796;3.290;2023-07-24T05:34:55;17.70;91.60
81902;DHT22;71369;50.796;3.290;2023-07-24T05:37:20;17.70;91.50
81902;DHT22;71369;50.796;3.290;2023-07-24T05:39:46;17.70;91.30
81902;DHT22;71369;50.796;3.290;2023-07-24T05:42:11;17.70;91.40
81902;DHT22;71369;50.796;3.290;2023-07-24T05:44:37;17.60;91.70
81902;DHT22;71369;50.796;3.290;2023-07-24T05:47:03;17.70;91.70
81902;DHT22;71369;50.796;3.290;2023-07-24T05:49:29;17.80;91.70
81902;DHT22;71369;50.796;3.290;2023-07-24T05:51:54;17.80;91.60
81902;DHT22;71369;50.796;3.290;2023-07-24T05:54:22;17.80;91.50
81902;DHT22;71369;50.796;3.290;2023-07-24T05:56:47;17.80;91.40
81902;DHT22;71369;50.796;3.290;2023-07-24T05:59:13;17.70;91.40
81902;DHT22;71369;50.796;3.290;2023-07-24T06:01:39;17.80;91.30
81902;DHT22;71369;50.796;3.290;2023-07-24T06:04:04;17.80;91.20
81902;DHT22;71369;50.796;3.290;2023-07-24T06:06:32;17.80;91.40
81902;DHT22;71369;50.796;3.290;2023-07-24T06:08:58;17.70;91.30
81902;DHT22;71369;50.796;3.290;2023-07-24T06:11:28;17.50;91.60
81902;DHT22;71369;50.796;3.290;2023-07-24T06:13:54;17.50;91.90
81902;DHT22;71369;50.796;3.290;2023-07-24T06:16:20;17.50;91.80
81902;DHT22;71369;50.796;3.290;2023-07-24T06:18:46;17.50;91.80
81902;DHT22;71369;50.796;3.290;2023-07-24T06:21:12;17.50;91.60
81902;DHT22;71369;50.796;3.290;2023-07-24T06:23:37;17.50;91.80
81902;DHT22;71369;50.796;3.290;2023-07-24T06:26:03;17.40;91.80
81902;DHT22;71369;50.796;3.290;2023-07-24T06:28:29;17.40;91.80
81902;DHT22;71369;50.796;3.290;2023-07-24T06:30:57;17.40;91.90
81902;DHT22;71369;50.796;3.290;2023-07-24T06:33:23;17.50;92.00
81902;DHT22;71369;50.796;3.290;2023-07-24T06:35:49;17.40;91.90
81902;DHT22;71369;50.796;3.290;2023-07-24T06:38:18;17.50;92.00
81902;DHT22;71369;50.796;3.290;2023-07-24T06:40:46;17.70;91.60
81902;DHT22;71369;50.796;3.290;2023-07-24T06:43:12;17.80;91.50
81902;DHT22;71369;50.796;3.290;2023-07-24T06:45:38;18.10;91.90
81902;DHT22;71369;50.796;3.290;2023-07-24T06:48:06;18.40;91.40
81902;DHT22;71369;50.796;3.290;2023-07-24T06:50:34;18.40;90.60
81902;DHT22;71369;50.796;3.290;2023-07-24T06:53:00;18.40;90.60
81902;DHT22;71369;50.796;3.290;2023-07-24T06:55:26;18.50;90.70
81902;DHT22;71369;50.796;3.290;2023-07-24T06:57:54;18.60;90.50
81902;DHT22;71369;50.796;3.290;2023-07-24T07:00:20;18.60;90.30
81902;DHT22;71369;50.796;3.290;2023-07-24T07:02:48;18.50;90.00
81902;DHT22;71369;50.796;3.290;2023-07-24T07:05:15;18.40;90.30
81902;DHT22;71369;50.796;3.290;2023-07-24T07:07:40;18.40;90.50
81902;DHT22;71369;50.796;3.290;2023-07-24T07:10:07;18.50;90.90
81902;DHT22;71369;50.796;3.290;2023-07-24T07:12:32;18.70;89.70
81902;DHT22;71369;50.796;3.290;2023-07-24T07:14:58;18.90;90.30
81902;DHT22;71369;50.796;3.290;2023-07-24T07:17:24;19.20;89.30
81902;DHT22;71369;50.796;3.290;2023-07-24T07:19:49;19.20;87.20
81902;DHT22;71369;50.796;3.290;2023-07-24T07:22:15;19.00;87.40
81902;DHT22;71369;50.796;3.290;2023-07-24T07:24:40;18.70;88.30
81902;DHT22;71369;50.796;3.290;2023-07-24T07:27:06;18.60;88.80
81902;DHT22;71369;50.796;3.290;2023-07-24T07:29:32;18.70;89.10
81902;DHT22;71369;50.796;3.290;2023-07-24T07:31:57;18.70;89.60
81902;DHT22;71369;50.796;3.290;2023-07-24T07:34:23;18.80;89.60
81902;DHT22;71369;50.796;3.290;2023-07-24T07:36:48;18.80;88.50
81902;DHT22;71369;50.796;3.290;2023-07-24T07:39:14;18.80;89.00
81902;DHT22;71369;50.796;3.290;2023-07-24T07:41:40;18.80;89.30
81902;DHT22;71369;50.796;3.290;2023-07-24T07:44:05;18.80;87.40
81902;DHT22;71369;50.796;3.290;2023-07-24T07:46:31;18.70;87.30
81902;DHT22;71369;50.796;3.290;2023-07-24T07:48:56;18.80;88.00
81902;DHT22;71369;50.796;3.290;2023-07-24T07:51:22;18.70;88.70
81902;DHT22;71369;50.796;3.290;2023-07-24T07:53:50;18.80;87.30
81902;DHT22;71369;50.796;3.290;2023-07-24T07:56:16;18.80;88.00
81902;DHT22;71369;50.796;3.290;2023-07-24T07:58:42;18.90;87.20
81902;DHT22;71369;50.796;3.290;2023-07-24T08:01:07;19.10;85.70
81902;DHT22;71369;50.796;3.290;2023-07-24T08:03:35;19.30;85.80
81902;DHT22;71369;50.796;3.290;2023-07-24T08:06:01;19.40;85.30
81902;DHT22;71369;50.796;3.290;2023-07-24T08:08:27;19.70;82.20
81902;DHT22;71369;50.796;3.290;2023-07-24T08:10:52;20.00;83.00
81902;DHT22;71369;50.796;3.290;2023-07-24T08:13:18;20.00;79.10
81902;DHT22;71369;50.796;3.290;2023-07-24T08:15:43;20.10;80.10
81902;DHT22;71369;50.796;3.290;2023-07-24T08:18:09;20.00;74.50
81902;DHT22;71369;50.796;3.290;2023-07-24T08:20:35;20.30;76.60
81902;DHT22;71369;50.796;3.290;2023-07-24T08:23:04;21.10;74.60
81902;DHT22;71369;50.796;3.290;2023-07-24T08:25:29;22.00;70.90
81902;DHT22;71369;50.796;3.290;2023-07-24T08:27:55;22.50;66.70
81902;DHT22;71369;50.796;3.290;2023-07-24T08:30:21;21.80;68.00
81902;DHT22;71369;50.796;3.290;2023-07-24T08:32:49;22.70;70.00
81902;DHT22;71369;50.796;3.290;2023-07-24T08:35:16;23.20;63.90
81902;DHT22;71369;50.796;3.290;2023-07-24T08:37:45;23.30;65.90
81902;DHT22;71369;50.796;3.290;2023-07-24T08:40:11;23.20;65.00
81902;DHT22;71369;50.796;3.290;2023-07-24T08:42:41;23.30;65.80
81902;DHT22;71369;50.796;3.290;2023-07-24T08:45:11;24.70;60.30
81902;DHT22;71369;50.796;3.290;2023-07-24T08:47:39;25.60;56.40
81902;DHT22;71369;50.796;3.290;2023-07-24T08:50:09;25.50;55.60
81902;DHT22;71369;50.796;3.290;2023-07-24T08:52:38;25.10;54.60
81902;DHT22;71369;50.796;3.290;2023-07-24T08:55:05;24.70;56.80
81902;DHT22;71369;50.796;3.290;2023-07-24T08:57:31;24.30;57.20
81902;DHT22;71369;50.796;3.290;2023-07-24T08:59:57;24.40;57.90
81902;DHT22;71369;50.796;3.290;2023-07-24T09:02:24;23.90;60.20
81902;DHT22;71369;50.796;3.290;2023-07-24T09:04:49;23.60;60.00
81902;DHT22;71369;50.796;3.290;2023-07-24T09:07:17;23.70;59.30
81902;DHT22;71369;50.796;3.290;2023-07-24T09:09:44;23.40;60.10
81902;DHT22;71369;50.796;3.290;2023-07-24T09:12:16;23.20;62.90
81902;DHT22;71369;50.796;3.290;2023-07-24T09:14:43;23.10;59.70
81902;DHT22;71369;50.796;3.290;2023-07-24T09:17:13;22.60;61.70
81902;DHT22;71369;50.796;3.290;2023-07-24T09:19:38;22.30;65.40
81902;DHT22;71369;50.796;3.290;2023-07-24T09:22:10;22.10;64.00
81902;DHT22;71369;50.796;3.290;2023-07-24T09:24:36;22.10;63.80
81902;DHT22;71369;50.796;3.290;2023-07-24T09:27:05;21.90;64.20
81902;DHT22;71369;50.796;3.290;2023-07-24T09:29:33;21.60;65.30
81902;DHT22;71369;50.796;3.290;2023-07-24T09:32:02;21.70;65.30
81902;DHT22;71369;50.796;3.290;2023-07-24T09:34:31;21.30;64.40
81902;DHT22;71369;50.796;3.290;2023-07-24T09:36:57;21.10;66.20
81902;DHT22;71369;50.796;3.290;2023-07-24T09:39:26;21.10;65.10
81902;DHT22;71369;50.796;3.290;2023-07-24T09:42:03;21.30;67.10
81902;DHT22;71369;50.796;3.290;2023-07-24T09:44:31;21.80;66.50
81902;DHT22;71369;50.796;3.290;2023-07-24T09:46:58;22.40;65.60
81902;DHT22;71369;50.796;3.290;2023-07-24T09:49:23;22.60;63.20
81902;DHT22;71369;50.796;3.290;2023-07-24T09:51:52;22.30;62.30
81902;DHT22;71369;50.796;3.290;2023-07-24T09:54:25;22.30;61.90
81902;DHT22;71369;50.796;3.290;2023-07-24T09:56:55;22.70;63.50
81902;DHT22;71369;50.796;3.290;2023-07-24T09:59:21;23.40;63.10
81902;DHT22;71369;50.796;3.290;2023-07-24T10:01:48;25.00;60.10
81902;DHT22;71369;50.796;3.290;2023-07-24T10:04:15;25.50;54.60
81902;DHT22;71369;50.796;3.290;2023-07-24T10:06:42;24.50;53.10
81902;DHT22;71369;50.796;3.290;2023-07-24T10:09:12;23.30;57.30
81902;DHT22;71369;50.796;3.290;2023-07-24T10:11:37;23.10;59.40
81902;DHT22;71369;50.796;3.290;2023-07-24T10:14:03;22.90;61.70
81902;DHT22;71369;50.796;3.290;2023-07-24T10:16:29;22.90;61.80
81902;DHT22;71369;50.796;3.290;2023-07-24T10:18:55;22.90;63.10
81902;DHT22;71369;50.796;3.290;2023-07-24T10:21:27;22.50;61.70
81902;DHT22;71369;50.796;3.290;2023-07-24T10:23:53;22.50;62.90
81902;DHT22;71369;50.796;3.290;2023-07-24T10:26:29;22.90;62.90
81902;DHT22;71369;50.796;3.290;2023-07-24T10:28:54;23.50;61.50
81902;DHT22;71369;50.796;3.290;2023-07-24T10:31:22;23.20;59.90
81902;DHT22;71369;50.796;3.290;2023-07-24T10:33:48;23.20;60.00
81902;DHT22;71369;50.796;3.290;2023-07-24T10:36:17;23.90;60.10
81902;DHT22;71369;50.796;3.290;2023-07-24T10:38:45;24.70;55.50
81902;DHT22;71369;50.796;3.290;2023-07-24T10:41:11;24.70;55.80
81902;DHT22;71369;50.796;3.290;2023-07-24T10:43:59;24.50;55.70
81902;DHT22;71369;50.796;3.290;2023-07-24T10:46:39;24.60;57.30
81902;DHT22;71369;50.796;3.290;2023-07-24T10:49:05;25.10;56.30
81902;DHT22;71369;50.796;3.290;2023-07-24T10:51:31;25.60;55.20
81902;DHT22;71369;50.796;3.290;2023-07-24T10:54:03;25.50;52.80
81902;DHT22;71369;50.796;3.290;2023-07-24T10:56:29;25.30;53.80
81902;DHT22;71369;50.796;3.290;2023-07-24T10:58:55;24.80;55.10
81902;DHT22;71369;50.796;3.290;2023-07-24T11:01:21;24.10;56.30
81902;DHT22;71369;50.796;3.290;2023-07-24T11:03:49;23.60;57.30
81902;DHT22;71369;50.796;3.290;2023-07-24T11:06:17;22.70;60.30
81902;DHT22;71369;50.796;3.290;2023-07-24T11:08:51;22.10;63.30
81902;DHT22;71369;50.796;3.290;2023-07-24T11:11:17;22.10;64.90
81902;DHT22;71369;50.796;3.290;2023-07-24T11:13:43;21.80;65.60
81902;DHT22;71369;50.796;3.290;2023-07-24T11:16:11;21.40;67.50
81902;DHT22;71369;50.796;3.290;2023-07-24T11:18:47;21.00;69.30
81902;DHT22;71369;50.796;3.290;2023-07-24T11:21:14;21.00;71.90
81902;DHT22;71369;50.796;3.290;2023-07-24T11:23:49;21.40;72.10
81902;DHT22;71369;50.796;3.290;2023-07-24T11:26:15;21.70;70.00
81902;DHT22;71369;50.796;3.290;2023-07-24T11:28:41;22.00;67.40
81902;DHT22;71369;50.796;3.290;2023-07-24T11:31:07;22.00;68.00
81902;DHT22;71369;50.796;3.290;2023-07-24T11:33:33;21.80;67.20
81902;DHT22;71369;50.796;3.290;2023-07-24T11:35:59;21.80;67.90
81902;DHT22;71369;50.796;3.290;2023-07-24T11:38:25;22.20;67.10
81902;DHT22;71369;50.796;3.290;2023-07-24T11:40:54;23.60;63.20
81902;DHT22;71369;50.796;3.290;2023-07-24T11:43:22;24.20;56.60
81902;DHT22;71369;50.796;3.290;2023-07-24T11:45:51;24.10;58.20
81902;DHT22;71369;50.796;3.290;2023-07-24T11:48:19;24.00;54.70
81902;DHT22;71369;50.796;3.290;2023-07-24T11:50:47;24.00;55.50
81902;DHT22;71369;50.796;3.290;2023-07-24T11:55:52;24.50;54.60
81902;DHT22;71369;50.796;3.290;2023-07-24T11:58:24;24.50;54.90
81902;DHT22;71369;50.796;3.290;2023-07-24T12:00:51;23.60;56.00
81902;DHT22;71369;50.796;3.290;2023-07-24T12:03:27;23.60;56.80
81902;DHT22;71369;50.796;3.290;2023-07-24T12:05:54;23.80;58.10
81902;DHT22;71369;50.796;3.290;2023-07-24T12:08:21;24.50;57.60
81902;DHT22;71369;50.796;3.290;2023-07-24T12:10:54;24.20;54.20
81902;DHT22;71369;50.796;3.290;2023-07-24T12:13:20;23.40;55.70
81902;DHT22;71369;50.796;3.290;2023-07-24T12:15:46;23.10;57.90
81902;DHT22;71369;50.796;3.290;2023-07-24T12:18:12;22.90;59.10
81902;DHT22;71369;50.796;3.290;2023-07-24T12:20:37;22.70;59.20
81902;DHT22;71369;50.796;3.290;2023-07-24T12:23:05;23.20;61.30
81902;DHT22;71369;50.796;3.290;2023-07-24T12:25:33;24.20;56.10
81902;DHT22;71369;50.796;3.290;2023-07-24T12:28:01;24.90;54.80
81902;DHT22;71369;50.796;3.290;2023-07-24T12:30:27;25.20;53.70
81902;DHT22;71369;50.796;3.290;2023-07-24T12:32:53;25.20;52.40
81902;DHT22;71369;50.796;3.290;2023-07-24T12:35:19;25.40;53.40
81902;DHT22;71369;50.796;3.290;2023-07-24T12:37:45;26.10;51.70
81902;DHT22;71369;50.796;3.290;2023-07-24T12:40:11;26.60;50.40
81902;DHT22;71369;50.796;3.290;2023-07-24T12:42:37;26.70;50.90
81902;DHT22;71369;50.796;3.290;2023-07-24T12:45:03;27.70;47.10
81902;DHT22;71369;50.796;3.290;2023-07-24T12:47:30;28.80;46.30
81902;DHT22;71369;50.796;3.290;2023-07-24T12:49:57;28.40;44.00
81902;DHT22;71369;50.796;3.290;2023-07-24T12:52:25;28.00;45.60
81902;DHT22;71369;50.796;3.290;2023-07-24T12:54:51;27.90;46.20
81902;DHT22;71369;50.796;3.290;2023-07-24T12:57:17;27.50;45.70
81902;DHT22;71369;50.796;3.290;2023-07-24T12:59:43;26.60;46.80
81902;DHT22;71369;50.796;3.290;2023-07-24T13:02:08;26.20;49.60
81902;DHT22;71369;50.796;3.290;2023-07-24T13:04:34;26.70;49.00
81902;DHT22;71369;50.796;3.290;2023-07-24T13:07:00;27.50;47.40
81902;DHT22;71369;50.796;3.290;2023-07-24T13:09:26;27.40;46.70
81902;DHT22;71369;50.796;3.290;2023-07-24T13:11:53;27.60;47.40
81902;DHT22;71369;50.796;3.290;2023-07-24T13:14:20;26.80;46.90
81902;DHT22;71369;50.796;3.290;2023-07-24T13:16:46;26.20;48.60
81902;DHT22;71369;50.796;3.290;2023-07-24T13:19:11;26.00;51.00
81902;DHT22;71369;50.796;3.290;2023-07-24T13:21:37;26.00;50.70
81902;DHT22;71369;50.796;3.290;2023-07-24T13:24:04;26.70;49.30
81902;DHT22;71369;50.796;3.290;2023-07-24T13:26:30;27.10;48.70
81902;DHT22;71369;50.796;3.290;2023-07-24T13:28:56;26.90;48.80
81902;DHT22;71369;50.796;3.290;2023-07-24T13:31:22;26.10;49.50
81902;DHT22;71369;50.796;3.290;2023-07-24T13:33:48;24.90;50.50
81902;DHT22;71369;50.796;3.290;2023-07-24T13:36:16;23.50;57.60
81902;DHT22;71369;50.796;3.290;2023-07-24T13:38:42;22.50;66.60
81902;DHT22;71369;50.796;3.290;2023-07-24T13:41:08;21.70;69.90
81902;DHT22;71369;50.796;3.290;2023-07-24T13:43:34;21.20;70.70
81902;DHT22;71369;50.796;3.290;2023-07-24T13:46:02;20.90;74.50
81902;DHT22;71369;50.796;3.290;2023-07-24T13:48:29;21.00;75.00
81902;DHT22;71369;50.796;3.290;2023-07-24T13:50:57;20.90;72.40
81902;DHT22;71369;50.796;3.290;2023-07-24T13:53:23;20.70;74.20
81902;DHT22;71369;50.796;3.290;2023-07-24T13:55:49;20.60;74.30
81902;DHT22;71369;50.796;3.290;2023-07-24T13:58:17;20.30;74.30
81902;DHT22;71369;50.796;3.290;2023-07-24T14:00:43;20.20;73.70
81902;DHT22;71369;50.796;3.290;2023-07-24T14:03:10;20.20;76.20
81902;DHT22;71369;50.796;3.290;2023-07-24T14:05:35;20.10;75.20
81902;DHT22;71369;50.796;3.290;2023-07-24T14:08:05;20.00;73.20
81902;DHT22;71369;50.796;3.290;2023-07-24T14:10:31;20.00;73.30
81902;DHT22;71369;50.796;3.290;2023-07-24T14:12:56;20.00;73.60
81902;DHT22;71369;50.796;3.290;2023-07-24T14:15:22;20.10;74.10
81902;DHT22;71369;50.796;3.290;2023-07-24T14:17:48;20.40;73.30
81902;DHT22;71369;50.796;3.290;2023-07-24T14:20:16;20.50;68.60
81902;DHT22;71369;50.796;3.290;2023-07-24T14:22:42;20.30;68.20
81902;DHT22;71369;50.796;3.290;2023-07-24T14:25:09;20.30;69.30
81902;DHT22;71369;50.796;3.290;2023-07-24T14:27:35;20.20;70.60
81902;DHT22;71369;50.796;3.290;2023-07-24T14:30:01;20.00;71.70
81902;DHT22;71369;50.796;3.290;2023-07-24T14:32:26;19.90;72.90
81902;DHT22;71369;50.796;3.290;2023-07-24T14:34:54;19.80;73.80
81902;DHT22;71369;50.796;3.290;2023-07-24T14:40:42;20.10;76.20
81902;DHT22;71369;50.796;3.290;2023-07-24T14:43:10;20.70;72.40
81902;DHT22;71369;50.796;3.290;2023-07-24T14:45:36;21.00;68.70
81902;DHT22;71369;50.796;3.290;2023-07-24T14:48:01;21.30;66.30
81902;DHT22;71369;50.796;3.290;2023-07-24T14:50:27;21.40;65.40
81902;DHT22;71369;50.796;3.290;2023-07-24T14:52:53;21.10;65.60
81902;DHT22;71369;50.796;3.290;2023-07-24T14:55:18;20.80;66.40
81902;DHT22;71369;50.796;3.290;2023-07-24T14:57:44;20.60;70.20
81902;DHT22;71369;50.796;3.290;2023-07-24T15:00:12;20.30;72.50
81902;DHT22;71369;50.796;3.290;2023-07-24T15:02:38;19.70;75.50
81902;DHT22;71369;50.796;3.290;2023-07-24T15:05:04;19.30;77.40
81902;DHT22;71369;50.796;3.290;2023-07-24T15:07:32;19.40;79.60
81902;DHT22;71369;50.796;3.290;2023-07-24T15:10:04;19.50;78.90
81902;DHT22;71369;50.796;3.290;2023-07-24T15:12:30;19.80;80.20
81902;DHT22;71369;50.796;3.290;2023-07-24T15:14:59;20.30;79.50
81902;DHT22;71369;50.796;3.290;2023-07-24T15:17:25;20.70;74.50
81902;DHT22;71369;50.796;3.290;2023-07-24T15:19:50;21.00;74.80
81902;DHT22;71369;50.796;3.290;2023-07-24T15:22:16;20.90;72.20
81902;DHT22;71369;50.796;3.290;2023-07-24T15:24:41;20.90;73.10
81902;DHT22;71369;50.796;3.290;2023-07-24T15:27:07;20.90;74.30
81902;DHT22;71369;50.796;3.290;2023-07-24T15:29:35;21.10;73.40
81902;DHT22;71369;50.796;3.290;2023-07-24T15:32:01;20.90;72.20